| time (UTC) | temp F | wind direction | speed MPH | gust MPH | rain 1hr in | rain 24hr in | rain mn in | humidity % | barometer mb |
| 20260506090717 | 40 | 203 | 1.0 | 2.0 | 0.00 | 0.00 | 0.00 | 60 | 1012.9 |
| 20260506085717 | 41 | 113 | 2.0 | 3.0 | 0.00 | 0.00 | 0.00 | 59 | 1012.9 |
| 20260506084718 | 41 | 23 | 2.0 | 8.0 | 0.00 | 0.00 | 0.00 | 58 | 1012.7 |
| 20260506083718 | 41 | 270 | 3.0 | 7.0 | 0.00 | 0.00 | 0.00 | 57 | 1012.6 |
| 20260506082717 | 41 | 135 | 1.0 | 3.0 | 0.00 | 0.00 | 0.00 | 56 | 1012.5 |
| 20260506081717 | 42 | 135 | 1.0 | 2.0 | 0.00 | 0.00 | 0.00 | 56 | 1012.5 |
| 20260506080718 | 42 | 270 | 2.0 | 3.0 | 0.00 | 0.00 | 0.00 | 56 | 1012.7 |
| 20260506072717 | 41 | 248 | 1.0 | 2.0 | 0.00 | 0.00 | 0.00 | 60 | 1012.4 |
| 20260506071717 | 41 | 0.0 | 1.0 | 0.00 | 0.00 | 0.00 | 61 | 1012.3 | |
| 20260506070717 | 42 | 0.0 | 1.0 | 0.00 | 0.00 | 0.00 | 59 | 1012.3 | |
| 20260506061718 | 44 | 203 | 2.0 | 4.0 | 0.00 | 0.00 | 0.00 | 52 | 1012.1 |
| 20260506060717 | 45 | 23 | 1.0 | 3.0 | 0.00 | 0.00 | 0.00 | 52 | 1011.9 |
| 20260506050718 | 42 | 248 | 1.0 | 1.0 | 0.00 | 0.00 | 0.00 | 65 | 1011.6 |
| 20260506044737 | 42 | 203 | 1.0 | 2.0 | 0.00 | 0.00 | 0.00 | 61 | 1011.4 |
| 20260506043718 | 42 | 0.0 | 1.0 | 0.00 | 0.00 | 0.00 | 61 | 1011.5 | |
| 20260506042716 | 42 | 203 | 1.0 | 1.0 | 0.00 | 0.00 | 0.00 | 60 | 1011.6 |
| 20260506041717 | 43 | 0.0 | 0.0 | 0.00 | 0.00 | 0.00 | 61 | 1011.3 | |
| 20260506040717 | 44 | 0.0 | 1.0 | 0.00 | 0.00 | 0.00 | 62 | 1011.4 | |
| 20260506035716 | 44 | 180 | 1.0 | 2.0 | 0.00 | 0.00 | 0.00 | 56 | 1011.4 |
| 20260506034717 | 44 | 203 | 1.0 | 2.0 | 0.00 | 0.00 | 0.00 | 59 | 1011.3 |
| 20260506033716 | 44 | 0.0 | 0.0 | 0.00 | 0.00 | 0.00 | 59 | 1011.2 | |
| 20260506032716 | 44 | 0.0 | 1.0 | 0.00 | 0.00 | 0.00 | 61 | 1011.2 | |
| 20260506031716 | 44 | 158 | 1.0 | 2.0 | 0.00 | 0.00 | 0.00 | 59 | 1011.1 |
| 20260506030717 | 45 | 0.0 | 1.0 | 0.00 | 0.00 | 0.00 | 59 | 1011.2 | |
| 20260506025716 | 45 | 0.0 | 1.0 | 0.00 | 0.00 | 0.00 | 58 | 1011.0 | |
| 20260506024716 | 46 | 0.0 | 1.0 | 0.00 | 0.00 | 0.00 | 57 | 1011.0 | |
| 20260506023716 | 46 | 158 | 1.0 | 1.0 | 0.00 | 0.00 | 0.00 | 55 | 1010.8 |
| 20260506022818 | 46 | 0.0 | 1.0 | 0.00 | 0.00 | 0.00 | 58 | 1010.7 | |
| 20260506021716 | 46 | 180 | 1.0 | 2.0 | 0.00 | 0.00 | 0.00 | 54 | 1010.6 |
| 20260506020717 | 46 | 0.0 | 1.0 | 0.00 | 0.00 | 0.00 | 58 | 1010.5 | |
| 20260506015716 | 46 | 0.0 | 0.0 | 0.00 | 0.00 | 0.00 | 60 | 1010.4 | |
| 20260506014716 | 45 | 0.0 | 0.0 | 0.00 | 0.00 | 0.00 | 58 | 1010.2 | |
| 20260506013736 | 45 | 0.0 | 1.0 | 0.00 | 0.00 | 0.00 | 58 | 1010.1 | |
| 20260506012717 | 46 | 0.0 | 1.0 | 0.00 | 0.00 | 0.00 | 57 | 1010.1 | |
| 20260506011716 | 46 | 0.0 | 1.0 | 0.00 | 0.00 | 0.00 | 58 | 1010.0 | |
| 20260506010716 | 48 | 0.0 | 0.0 | 0.00 | 0.00 | 0.00 | 53 | 1010.1 | |
| 20260506005716 | 48 | 113 | 2.0 | 3.0 | 0.00 | 0.00 | 0.00 | 49 | 1010.0 |
| 20260506004716 | 49 | 113 | 1.0 | 3.0 | 0.00 | 0.00 | 0.00 | 45 | 1009.8 |
| 20260506003716 | 50 | 0.0 | 1.0 | 0.00 | 0.00 | 0.00 | 42 | 1009.8 | |
| 20260506002716 | 50 | 135 | 1.0 | 2.0 | 0.00 | 0.00 | 0.00 | 41 | 1009.7 |
| 20260506001716 | 50 | 45 | 2.0 | 3.0 | 0.00 | 0.00 | 0.00 | 39 | 1009.7 |
| 20260506000716 | 50 | 68 | 2.0 | 5.0 | 0.00 | 0.00 | 0.00 | 44 | 1009.7 |
| 20260505235717 | 50 | 113 | 1.0 | 1.0 | 0.00 | 0.00 | 0.00 | 39 | 1009.5 |
| 20260505234717 | 50 | 0.0 | 1.0 | 0.00 | 0.00 | 0.00 | 42 | 1009.5 | |
| 20260505233716 | 50 | 68 | 2.0 | 4.0 | 0.00 | 0.00 | 0.00 | 40 | 1009.5 |
| 20260505232716 | 50 | 135 | 1.0 | 4.0 | 0.00 | 0.00 | 0.00 | 40 | 1009.4 |
| 20260505231716 | 51 | 90 | 4.0 | 6.0 | 0.00 | 0.00 | 0.00 | 40 | 1009.5 |
| 20260505230716 | 51 | 225 | 1.0 | 2.0 | 0.00 | 0.00 | 0.00 | 38 | 1009.4 |
| 20260505225736 | 51 | 293 | 2.0 | 3.0 | 0.00 | 0.00 | 0.00 | 36 | 1009.5 |
| 20260505224716 | 51 | 90 | 3.0 | 4.0 | 0.00 | 0.00 | 0.00 | 36 | 1009.7 |
| 20260505223716 | 51 | 270 | 2.0 | 4.0 | 0.00 | 0.00 | 0.00 | 35 | 1009.6 |
| 20260505222737 | 51 | 90 | 5.0 | 8.0 | 0.00 | 0.00 | 0.00 | 35 | 1009.6 |
| 20260505221738 | 51 | 90 | 3.0 | 4.0 | 0.00 | 0.00 | 0.00 | 39 | 1009.5 |
| 20260505220716 | 52 | 135 | 1.0 | 2.0 | 0.00 | 0.00 | 0.00 | 38 | 1009.5 |
| 20260505215716 | 51 | 203 | 2.0 | 5.0 | 0.00 | 0.00 | 0.00 | 34 | 1009.6 |
| 20260505214717 | 51 | 90 | 4.0 | 6.0 | 0.00 | 0.00 | 0.00 | 38 | 1009.7 |
| 20260505213716 | 52 | 180 | 3.0 | 6.0 | 0.00 | 0.00 | 0.00 | 36 | 1009.6 |
| 20260505212716 | 52 | 158 | 2.0 | 3.0 | 0.00 | 0.00 | 0.00 | 35 | 1009.6 |
| 20260505211716 | 51 | 135 | 2.0 | 3.0 | 0.00 | 0.00 | 0.00 | 37 | 1009.7 |
| 20260505210759 | 51 | 90 | 1.0 | 2.0 | 0.00 | 0.00 | 0.00 | 35 | 1009.5 |
| 20260505205717 | 52 | 113 | 3.0 | 5.0 | 0.00 | 0.00 | 0.00 | 34 | 1009.7 |
| 20260505204716 | 53 | 113 | 3.0 | 4.0 | 0.00 | 0.00 | 0.00 | 37 | 1009.8 |
| 20260505203715 | 53 | 45 | 2.0 | 4.0 | 0.00 | 0.00 | 0.00 | 37 | 1009.7 |
| 20260505202716 | 51 | 203 | 4.0 | 5.0 | 0.00 | 0.00 | 0.00 | 35 | 1009.7 |
| 20260505201716 | 52 | 90 | 4.0 | 8.0 | 0.00 | 0.00 | 0.00 | 34 | 1009.8 |
| 20260505200716 | 53 | 158 | 4.0 | 8.0 | 0.00 | 0.00 | 0.00 | 34 | 1009.9 |
| 20260505195716 | 52 | 113 | 4.0 | 8.0 | 0.00 | 0.00 | 0.00 | 35 | 1010.0 |
| 20260505194716 | 53 | 90 | 6.0 | 10.0 | 0.00 | 0.00 | 0.00 | 33 | 1010.0 |
| 20260505193717 | 54 | 90 | 9.0 | 14.0 | 0.00 | 0.00 | 0.00 | 33 | 1009.8 |
| 20260505192716 | 53 | 113 | 4.0 | 7.0 | 0.00 | 0.00 | 0.00 | 33 | 1009.9 |
| 20260505191715 | 52 | 45 | 5.0 | 9.0 | 0.00 | 0.00 | 0.00 | 35 | 1009.9 |
| 20260505190717 | 53 | 68 | 2.0 | 4.0 | 0.00 | 0.00 | 0.00 | 35 | 1009.8 |
| 20260505185716 | 54 | 338 | 3.0 | 5.0 | 0.00 | 0.00 | 0.00 | 34 | 1009.9 |
| 20260505184716 | 52 | 45 | 5.0 | 9.0 | 0.00 | 0.00 | 0.00 | 34 | 1009.8 |
| 20260505183717 | 54 | 90 | 3.0 | 5.0 | 0.00 | 0.00 | 0.00 | 38 | 1009.9 |
| 20260505182717 | 53 | 45 | 2.0 | 6.0 | 0.00 | 0.00 | 0.00 | 32 | 1009.8 |
| 20260505181717 | 53 | 68 | 4.0 | 6.0 | 0.00 | 0.00 | 0.00 | 37 | 1009.6 |
| 20260505180739 | 52 | 68 | 3.0 | 5.0 | 0.00 | 0.00 | 0.00 | 34 | 1009.7 |
| 20260505175719 | 52 | 90 | 5.0 | 7.0 | 0.00 | 0.00 | 0.00 | 35 | 1009.6 |
| 20260505174717 | 51 | 113 | 6.0 | 11.0 | 0.00 | 0.00 | 0.00 | 36 | 1009.6 |
| 20260505173718 | 50 | 113 | 6.0 | 10.0 | 0.00 | 0.00 | 0.00 | 37 | 1009.5 |
| 20260505172717 | 50 | 135 | 3.0 | 4.0 | 0.00 | 0.00 | 0.00 | 36 | 1009.6 |
| 20260505171719 | 50 | 68 | 3.0 | 4.0 | 0.00 | 0.00 | 0.00 | 36 | 1009.6 |
| 20260505170739 | 50 | 293 | 3.0 | 4.0 | 0.00 | 0.00 | 0.00 | 37 | 1009.5 |
| 20260505165717 | 50 | 158 | 3.0 | 5.0 | 0.00 | 0.00 | 0.00 | 37 | 1009.5 |
| 20260505164717 | 49 | 158 | 3.0 | 4.0 | 0.00 | 0.00 | 0.00 | 36 | 1009.6 |
| 20260505163717 | 49 | 135 | 2.0 | 3.0 | 0.00 | 0.00 | 0.00 | 35 | 1009.8 |
| 20260505162718 | 49 | 45 | 3.0 | 8.0 | 0.00 | 0.00 | 0.00 | 35 | 1009.7 |
| 20260505161737 | 49 | 90 | 6.0 | 8.0 | 0.00 | 0.00 | 0.00 | 36 | 1009.7 |
| 20260505160718 | 48 | 315 | 3.0 | 7.0 | 0.00 | 0.00 | 0.00 | 35 | 1009.7 |
| 20260505152717 | 48 | 113 | 4.0 | 8.0 | 0.00 | 0.00 | 0.00 | 35 | 1009.6 |
| 20260505151740 | 48 | 113 | 3.0 | 6.0 | 0.00 | 0.00 | 0.00 | 37 | 1009.4 |
| 20260505150717 | 48 | 90 | 3.0 | 6.0 | 0.00 | 0.00 | 0.00 | 39 | 1009.4 |
| 20260505124717 | 42 | 113 | 1.0 | 2.0 | 0.00 | 0.00 | 0.00 | 59 | 1009.1 |
| 20260505123717 | 42 | 68 | 2.0 | 4.0 | 0.00 | 0.00 | 0.00 | 61 | 1008.8 |
| 20260505122717 | 41 | 113 | 2.0 | 3.0 | 0.00 | 0.00 | 0.00 | 65 | 1008.7 |
| 20260505121738 | 41 | 135 | 2.0 | 3.0 | 0.00 | 0.00 | 0.00 | 64 | 1008.5 |
| 20260505120737 | 41 | 135 | 2.0 | 3.0 | 0.00 | 0.00 | 0.00 | 63 | 1008.4 |
| 20260505115717 | 41 | 135 | 2.0 | 3.0 | 0.00 | 0.00 | 0.00 | 61 | 1008.2 |
| 20260505114737 | 41 | 113 | 2.0 | 4.0 | 0.00 | 0.00 | 0.00 | 61 | 1007.9 |
| 20260505113717 | 41 | 90 | 2.0 | 3.0 | 0.00 | 0.00 | 0.00 | 59 | 1007.6 |
| 20260505112717 | 41 | 90 | 4.0 | 5.0 | 0.00 | 0.00 | 0.00 | 59 | 1007.6 |
| 20260505111717 | 41 | 180 | 2.0 | 3.0 | 0.00 | 0.00 | 0.00 | 62 | 1007.5 |
| 20260505110717 | 41 | 203 | 2.0 | 4.0 | 0.00 | 0.00 | 0.00 | 61 | 1007.4 |
| 20260505101718 | 42 | 203 | 1.0 | 2.0 | 0.00 | 0.00 | 0.00 | 60 | 1007.0 |
| 20260505100717 | 42 | 0.0 | 2.0 | 0.00 | 0.00 | 0.00 | 61 | 1006.8 | |
| 20260505095718 | 42 | 180 | 1.0 | 2.0 | 0.00 | 0.00 | 0.00 | 59 | 1006.6 |
| 20260505094718 | 42 | 158 | 2.0 | 2.0 | 0.00 | 0.00 | 0.00 | 59 | 1006.4 |
| 20260505093718 | 41 | 0.0 | 1.0 | 0.00 | 0.00 | 0.00 | 64 | 1006.2 | |
| 20260505092717 | 43 | 158 | 1.0 | 2.0 | 0.00 | 0.00 | 0.00 | 57 | 1006.3 |
| 20260505091717 | 43 | 135 | 1.0 | 2.0 | 0.00 | 0.00 | 0.00 | 57 | 1006.3 |